Time;durP1;ratioP1;P1;durP2;ratioP2;P2;SDS_P1;SDS_P2;PMS_P1;PMS_P2;Temp;Humidity;BMP_temperature;BMP_pressure;BME280_temperature;BME280_humidity;BME280_pressure;Samples;Min_cycle;Max_cycle;Signal;HPM_P1;HPM_P2
2021/11/14 00:01:53;;;;;;;12.13;8.38;;;;;;;8.00;nan;100455.09;4988657;28;20054;-75
2021/11/14 00:04:19;;;;;;;15.48;10.02;;;;;;;8.04;nan;100452.06;4987051;28;20499;-75
2021/11/14 00:06:44;;;;;;;16.15;10.80;;;;;;;8.01;nan;100451.53;4987855;28;20042;-75
2021/11/14 00:09:11;;;;;;;12.65;8.30;;;;;;;7.95;nan;100455.50;4988881;28;20034;-75
2021/11/14 00:11:37;;;;;;;11.65;7.53;;;;;;;7.97;nan;100461.47;4989833;28;20508;-76
2021/11/14 00:14:02;;;;;;;13.80;9.13;;;;;;;7.98;nan;100454.41;4988583;28;20084;-76
2021/11/14 00:16:28;;;;;;;18.95;10.60;;;;;;;8.01;nan;100457.63;4997278;28;20514;-76
2021/11/14 00:18:55;;;;;;;16.45;10.43;;;;;;;8.00;nan;100457.75;4990412;28;20037;-76
2021/11/14 00:21:22;;;;;;;18.67;10.50;;;;;;;7.99;nan;100456.91;4989546;28;20042;-76
2021/11/14 00:23:48;;;;;;;14.48;9.45;;;;;;;7.91;nan;100456.75;4993127;28;20066;-75
2021/11/14 00:26:14;;;;;;;16.83;10.60;;;;;;;7.91;nan;100453.28;4988173;28;20101;-76
2021/11/14 00:28:42;;;;;;;17.80;11.32;;;;;;;7.93;nan;100457.44;4991470;28;20282;-75
2021/11/14 00:31:11;;;;;;;18.90;12.73;;;;;;;7.93;nan;100460.09;4991981;28;20061;-75
2021/11/14 00:33:36;;;;;;;16.60;11.60;;;;;;;7.90;nan;100460.38;4992905;28;20043;-75
2021/11/14 00:36:02;;;;;;;18.77;11.93;;;;;;;7.93;nan;100454.00;4991750;28;20112;-75
2021/11/14 00:38:28;;;;;;;16.10;10.95;;;;;;;7.84;nan;100447.72;4991910;28;20030;-75
2021/11/14 00:40:53;;;;;;;18.13;11.65;;;;;;;7.91;nan;100455.91;4989662;28;20034;-75
2021/11/14 00:43:19;;;;;;;19.25;11.18;;;;;;;7.87;nan;100452.75;5000044;28;20034;-75
2021/11/14 00:45:46;;;;;;;15.98;10.63;;;;;;;7.83;nan;100454.81;4992771;28;20462;-75
2021/11/14 00:48:13;;;;;;;17.30;10.98;;;;;;;7.82;nan;100455.78;4992694;28;20046;-75
2021/11/14 00:50:43;;;;;;;16.65;10.93;;;;;;;7.85;nan;100457.31;4991825;28;20034;-75
2021/11/14 00:53:12;;;;;;;16.45;11.55;;;;;;;7.93;nan;100461.88;4992459;28;20041;-75
2021/11/14 00:55:38;;;;;;;16.92;11.40;;;;;;;7.91;nan;100464.66;4993838;28;20551;-75
2021/11/14 00:58:04;;;;;;;17.42;11.50;;;;;;;7.82;nan;100458.41;4992403;28;20114;-75
2021/11/14 01:00:31;;;;;;;17.33;11.68;;;;;;;7.91;nan;100467.28;4990641;28;20030;-75
2021/11/14 01:02:57;;;;;;;14.43;10.88;;;;;;;7.86;nan;100465.09;4992544;28;20097;-75
2021/11/14 01:05:23;;;;;;;16.13;10.65;;;;;;;7.84;nan;100466.16;4992697;28;20487;-75
2021/11/14 01:07:49;;;;;;;12.63;9.20;;;;;;;7.79;nan;100465.75;5001058;28;20033;-75
2021/11/14 01:10:18;;;;;;;11.65;8.05;;;;;;;7.76;nan;100461.56;4992832;28;20014;-75
2021/11/14 01:12:44;;;;;;;13.55;9.18;;;;;;;7.76;nan;100469.47;4986483;28;20029;-75
2021/11/14 01:15:13;;;;;;;11.95;8.27;;;;;;;7.75;nan;100462.56;4999988;28;20022;-75
2021/11/14 01:17:40;;;;;;;12.68;8.60;;;;;;;7.78;nan;100469.34;4994654;28;20030;-75
2021/11/14 01:20:20;;;;;;;11.25;7.72;;;;;;;7.79;nan;100466.56;4996105;28;20022;-75
2021/11/14 01:22:47;;;;;;;12.07;8.63;;;;;;;7.81;nan;100467.25;4991115;28;20085;-75
2021/11/14 01:25:14;;;;;;;13.05;8.63;;;;;;;7.80;nan;100467.41;4992114;28;20022;-75
2021/11/14 01:27:40;;;;;;;14.40;9.85;;;;;;;7.84;nan;100467.03;4990271;28;20022;-76
2021/11/14 01:30:14;;;;;;;13.10;10.02;;;;;;;7.82;nan;100476.03;4991399;28;20061;-76
2021/11/14 01:32:41;;;;;;;15.75;10.90;;;;;;;7.90;nan;100470.06;4991433;28;20030;-75
2021/11/14 01:35:09;;;;;;;13.93;9.65;;;;;;;7.78;nan;100474.63;4998255;28;20368;-76
2021/11/14 01:37:34;;;;;;;13.60;9.43;;;;;;;7.81;nan;100471.69;4990148;28;20033;-76
2021/11/14 01:40:01;;;;;;;14.05;9.60;;;;;;;7.89;nan;100477.13;4992069;28;20041;-76
2021/11/14 01:42:28;;;;;;;13.32;9.00;;;;;;;7.90;nan;100473.53;4991247;28;20033;-74
2021/11/14 01:44:54;;;;;;;13.68;8.50;;;;;;;7.91;nan;100474.34;4991532;28;20026;-75
2021/11/14 01:47:19;;;;;;;14.15;8.95;;;;;;;7.86;nan;100472.97;4991488;28;20495;-75
2021/11/14 01:49:45;;;;;;;15.20;8.75;;;;;;;7.92;nan;100473.41;4996044;28;20105;-76
2021/11/14 01:52:23;;;;;;;11.40;7.68;;;;;;;7.89;nan;100479.78;4991515;28;20110;-76
2021/11/14 01:54:49;;;;;;;11.70;7.90;;;;;;;7.88;nan;100476.28;4999175;28;20026;-75
2021/11/14 01:57:15;;;;;;;14.93;10.27;;;;;;;7.90;nan;100484.06;4991816;28;20357;-76
2021/11/14 01:59:42;;;;;;;17.50;10.75;;;;;;;7.87;nan;100485.16;4983896;28;20121;-76
2021/11/14 02:02:09;;;;;;;13.80;9.85;;;;;;;7.86;nan;100485.28;4991612;28;20563;-76
2021/11/14 02:04:36;;;;;;;15.90;9.90;;;;;;;7.86;nan;100486.16;4989114;28;20064;-76
2021/11/14 02:07:02;;;;;;;17.33;11.35;;;;;;;7.91;nan;100488.34;4991287;28;20080;-75
2021/11/14 02:09:28;;;;;;;15.98;11.15;;;;;;;7.92;nan;100486.56;4994162;28;20030;-76
2021/11/14 02:11:56;;;;;;;16.00;10.57;;;;;;;7.93;nan;100488.22;4990552;28;20490;-75
2021/11/14 02:14:23;;;;;;;14.68;9.85;;;;;;;7.76;nan;100490.53;4988843;28;20034;-75
2021/11/14 02:16:49;;;;;;;13.48;9.80;;;;;;;7.78;nan;100485.97;4994205;28;20411;-76
2021/11/14 02:19:15;;;;;;;11.85;8.77;;;;;;;7.79;nan;100492.06;4990835;28;20019;-76
2021/11/14 02:21:42;;;;;;;14.25;8.95;;;;;;;7.77;nan;100494.84;4986605;28;20022;-75
2021/11/14 02:24:08;;;;;;;12.43;8.82;;;;;;;7.72;nan;100493.56;4989561;28;20487;-76
2021/11/14 02:26:34;;;;;;;14.43;9.32;;;;;;;7.70;nan;100488.44;4990423;28;20439;-75
2021/11/14 02:29:01;;;;;;;14.90;9.93;;;;;;;7.68;nan;100492.19;4994092;28;20034;-76
2021/11/14 02:31:28;;;;;;;11.20;8.38;;;;;;;7.68;nan;100500.91;4989321;28;20018;-75
2021/11/14 02:33:56;;;;;;;11.43;8.30;;;;;;;7.69;nan;100493.84;4991509;28;20028;-76
2021/11/14 02:36:21;;;;;;;14.07;9.20;;;;;;;7.70;nan;100498.13;4990102;28;20026;-75
2021/11/14 02:38:48;;;;;;;14.13;8.90;;;;;;;7.82;nan;100494.44;4988807;28;20026;-76
2021/11/14 02:41:15;;;;;;;15.23;8.93;;;;;;;7.84;nan;100501.25;4990896;28;20479;-76
2021/11/14 02:43:47;;;;;;;13.77;9.57;;;;;;;7.89;nan;100506.09;4990180;28;20388;-75
2021/11/14 02:46:14;;;;;;;13.18;9.20;;;;;;;7.88;nan;100510.50;4988049;28;20026;-75
2021/11/14 02:48:41;;;;;;;15.40;9.43;;;;;;;7.90;nan;100501.66;4993137;28;20032;-75
2021/11/14 02:51:13;;;;;;;13.57;9.10;;;;;;;7.82;nan;100505.81;4994241;28;20169;-75
2021/11/14 02:53:40;;;;;;;13.13;8.65;;;;;;;7.85;nan;100505.53;4998688;28;20562;-76
2021/11/14 02:56:07;;;;;;;12.85;8.20;;;;;;;7.85;nan;100505.53;4989681;28;20037;-76
2021/11/14 02:58:33;;;;;;;13.63;9.05;;;;;;;7.88;nan;100509.69;4988628;28;20034;-76
2021/11/14 03:01:41;;;;;;;14.70;8.60;;;;;;;7.91;nan;100498.03;4989559;28;20085;-76
2021/11/14 03:04:09;;;;;;;11.65;8.13;;;;;;;7.77;nan;100508.00;4987035;28;20022;-75
2021/11/14 03:06:36;;;;;;;14.52;9.57;;;;;;;7.80;nan;100507.72;4990686;28;20266;-75
2021/11/14 03:09:06;;;;;;;13.15;8.30;;;;;;;7.75;nan;100509.94;4989956;28;20034;-76
2021/11/14 03:11:32;;;;;;;15.23;9.50;;;;;;;7.86;nan;100507.22;4988951;28;20463;-76
2021/11/14 03:13:59;;;;;;;11.90;7.97;;;;;;;7.86;nan;100506.34;4990505;28;20088;-76
2021/11/14 03:16:26;;;;;;;10.98;7.05;;;;;;;7.81;nan;100501.50;4990690;28;20022;-76
2021/11/14 03:18:56;;;;;;;10.68;7.25;;;;;;;7.83;nan;100507.44;4989354;28;20027;-76
2021/11/14 03:21:23;;;;;;;10.82;7.30;;;;;;;7.85;nan;100505.53;4990149;28;20184;-76
2021/11/14 03:23:50;;;;;;;9.90;6.65;;;;;;;7.88;nan;100504.41;4988541;28;20027;-75
2021/11/14 03:26:18;;;;;;;10.57;7.47;;;;;;;7.87;nan;100505.41;4988735;28;20404;-76
2021/11/14 03:28:45;;;;;;;11.38;7.50;;;;;;;7.92;nan;100511.09;4985713;28;20072;-76
2021/11/14 03:31:13;;;;;;;9.63;7.10;;;;;;;7.86;nan;100511.63;4988665;28;20030;-75
2021/11/14 03:33:39;;;;;;;11.60;7.38;;;;;;;7.88;nan;100514.94;4990203;28;20022;-76
2021/11/14 03:36:08;;;;;;;12.52;8.30;;;;;;;7.93;nan;100523.28;4989870;28;20200;-76
2021/11/14 03:38:40;;;;;;;12.63;8.23;;;;;;;7.97;nan;100526.50;4988683;28;20121;-76
2021/11/14 03:41:15;;;;;;;12.00;7.63;;;;;;;7.93;nan;100520.63;4988003;28;20030;-75
2021/11/14 03:43:41;;;;;;;11.65;7.95;;;;;;;8.00;nan;100524.41;4988745;28;20125;-76
2021/11/14 03:46:08;;;;;;;10.35;7.03;;;;;;;7.87;nan;100532.56;4989472;28;20382;-76
2021/11/14 03:48:35;;;;;;;11.20;7.45;;;;;;;7.84;nan;100529.34;4987818;28;20065;-76
2021/11/14 03:51:00;;;;;;;12.25;7.65;;;;;;;7.90;nan;100534.09;4991784;28;20133;-75
2021/11/14 03:53:26;;;;;;;9.55;6.78;;;;;;;7.91;nan;100537.53;4993785;28;20101;-76
2021/11/14 03:55:52;;;;;;;10.93;7.00;;;;;;;7.82;nan;100533.94;5001046;28;20071;-76
2021/11/14 03:58:18;;;;;;;12.48;7.70;;;;;;;7.78;nan;100537.78;4994244;28;20384;-76
2021/11/14 04:00:48;;;;;;;11.73;7.75;;;;;;;7.85;nan;100542.38;4993315;28;20217;-76
2021/11/14 04:03:14;;;;;;;12.00;7.75;;;;;;;7.94;nan;100542.56;4993689;28;20129;-76
2021/11/14 04:05:43;;;;;;;10.45;7.28;;;;;;;7.93;nan;100538.25;4991560;28;20502;-76
2021/11/14 04:08:10;;;;;;;11.32;7.47;;;;;;;7.98;nan;100536.88;4996749;28;20026;-75
2021/11/14 04:10:36;;;;;;;10.85;7.88;;;;;;;7.98;nan;100547.41;4993323;28;20034;-76
2021/11/14 04:13:02;;;;;;;11.02;7.75;;;;;;;7.99;nan;100551.72;4992996;28;20049;-76
2021/11/14 04:15:28;;;;;;;10.70;7.07;;;;;;;7.94;nan;100545.19;4993767;28;20027;-76
2021/11/14 04:17:56;;;;;;;10.63;7.25;;;;;;;7.99;nan;100543.00;4993443;28;20115;-75
2021/11/14 04:20:26;;;;;;;10.43;7.60;;;;;;;7.98;nan;100543.94;4993557;28;20022;-75
2021/11/14 04:22:52;;;;;;;10.45;7.20;;;;;;;7.96;nan;100549.34;4992800;28;20067;-76
2021/11/14 04:25:19;;;;;;;10.95;7.65;;;;;;;7.97;nan;100545.75;5002071;28;20450;-76
2021/11/14 04:27:44;;;;;;;10.60;7.15;;;;;;;7.98;nan;100547.41;4987308;28;20023;-76
2021/11/14 04:30:10;;;;;;;12.30;8.57;;;;;;;8.02;nan;100554.06;4993405;28;20030;-76
2021/11/14 04:32:35;;;;;;;13.02;8.25;;;;;;;7.91;nan;100554.16;4992556;28;20057;-75
2021/11/14 04:35:02;;;;;;;11.45;8.18;;;;;;;7.98;nan;100557.09;5000011;28;20269;-76
2021/11/14 04:37:28;;;;;;;10.82;7.78;;;;;;;7.92;nan;100555.84;4994592;28;20034;-76
2021/11/14 04:39:53;;;;;;;10.88;7.60;;;;;;;7.85;nan;100552.91;4992569;28;20521;-76
2021/11/14 04:42:19;;;;;;;9.77;6.65;;;;;;;7.85;nan;100558.19;4992318;28;20033;-76
2021/11/14 04:44:44;;;;;;;9.40;6.68;;;;;;;7.84;nan;100555.66;4992839;28;20045;-75
2021/11/14 04:47:10;;;;;;;10.23;7.32;;;;;;;7.78;nan;100556.22;4992598;28;20049;-76
2021/11/14 04:49:35;;;;;;;10.18;7.40;;;;;;;7.87;nan;100556.25;4993126;28;20088;-76
2021/11/14 04:52:00;;;;;;;10.27;7.10;;;;;;;7.90;nan;100559.59;4992851;28;20427;-75
2021/11/14 04:54:26;;;;;;;10.00;7.15;;;;;;;7.88;nan;100560.53;4993241;28;20041;-75
2021/11/14 04:56:51;;;;;;;7.43;5.35;;;;;;;7.90;nan;100570.13;4997106;28;20022;-75
2021/11/14 04:59:17;;;;;;;9.55;6.68;;;;;;;7.91;nan;100574.41;4992672;28;20109;-76
2021/11/14 05:01:42;;;;;;;9.73;7.35;;;;;;;7.89;nan;100574.56;4992591;28;20053;-75
2021/11/14 05:04:08;;;;;;;8.55;6.28;;;;;;;7.88;nan;100580.78;4991991;28;20026;-75
2021/11/14 05:06:33;;;;;;;9.38;6.32;;;;;;;7.84;nan;100580.22;5007129;28;20030;-75
2021/11/14 05:09:00;;;;;;;11.05;7.45;;;;;;;7.82;nan;100578.69;4992507;28;20101;-75
2021/11/14 05:11:26;;;;;;;9.90;7.70;;;;;;;7.95;nan;100581.06;4992559;28;20027;-75
2021/11/14 05:13:51;;;;;;;12.10;7.88;;;;;;;7.83;nan;100581.16;4991801;28;20124;-76
2021/11/14 05:16:16;;;;;;;11.55;8.10;;;;;;;7.74;nan;100581.94;4992454;28;20390;-75
2021/11/14 05:18:42;;;;;;;14.35;10.07;;;;;;;7.77;nan;100581.72;4991108;28;20072;-75
2021/11/14 05:21:09;;;;;;;10.15;7.60;;;;;;;7.75;nan;100583.63;4991908;28;20452;-75
2021/11/14 05:23:35;;;;;;;18.88;11.32;;;;;;;7.75;nan;100588.06;4991563;28;20446;-76
2021/11/14 05:26:00;;;;;;;13.40;8.65;;;;;;;7.70;nan;100592.88;4992021;28;20454;-75
2021/11/14 05:28:26;;;;;;;13.63;9.00;;;;;;;7.67;nan;100591.34;4991739;28;20026;-75
2021/11/14 05:30:51;;;;;;;11.52;8.18;;;;;;;7.67;nan;100591.34;4990539;28;20026;-75
2021/11/14 05:33:17;;;;;;;11.07;7.40;;;;;;;7.70;nan;100596.38;4991316;28;20370;-75
2021/11/14 05:35:43;;;;;;;10.35;7.47;;;;;;;7.61;nan;100600.59;4990699;28;20041;-75
2021/11/14 05:38:09;;;;;;;12.90;8.50;;;;;;;7.61;nan;100602.41;4991798;28;20034;-75
2021/11/14 05:40:35;;;;;;;13.00;8.23;;;;;;;7.61;nan;100603.25;4992262;28;20383;-75
2021/11/14 05:43:00;;;;;;;12.23;8.20;;;;;;;7.62;nan;100602.25;4991134;28;20026;-75
2021/11/14 05:45:26;;;;;;;9.77;7.18;;;;;;;7.63;nan;100611.00;4991248;28;20557;-75
2021/11/14 05:47:52;;;;;;;11.80;8.18;;;;;;;7.68;nan;100616.72;4992118;28;20026;-75
2021/11/14 05:50:18;;;;;;;8.20;6.85;;;;;;;7.65;nan;100615.19;4993939;28;20034;-75
2021/11/14 05:52:44;;;;;;;11.82;8.82;;;;;;;7.70;nan;100613.94;4991529;28;20113;-75
2021/11/14 05:55:10;;;;;;;10.48;8.55;;;;;;;7.64;nan;100617.94;4991123;28;20026;-75
2021/11/14 05:58:01;;;;;;;11.02;8.00;;;;;;;7.62;nan;100625.13;4991936;28;20034;-75
2021/11/14 06:00:45;;;;;;;12.60;8.10;;;;;;;7.66;nan;100632.63;4992051;28;20022;-75
2021/11/14 06:05:46;;;;;;;9.18;7.47;;;;;;;7.74;nan;100625.88;4991689;28;20030;-75
2021/11/14 06:08:12;;;;;;;10.00;7.65;;;;;;;7.67;nan;100630.81;4989608;28;20045;-75
2021/11/14 06:10:38;;;;;;;9.55;7.40;;;;;;;7.74;nan;100634.59;4991492;28;20050;-75
2021/11/14 06:13:03;;;;;;;9.65;7.10;;;;;;;7.73;nan;100638.22;4991900;28;20050;-75
2021/11/14 06:15:30;;;;;;;8.13;6.35;;;;;;;7.73;nan;100640.00;4992087;28;20522;-75
2021/11/14 06:17:55;;;;;;;9.00;7.20;;;;;;;7.74;nan;100646.94;4992408;28;20030;-75
2021/11/14 06:20:22;;;;;;;9.35;7.20;;;;;;;7.71;nan;100642.75;4993292;28;20029;-75
2021/11/14 06:22:47;;;;;;;10.02;7.43;;;;;;;7.73;nan;100648.75;4993389;28;20034;-75
2021/11/14 06:25:13;;;;;;;10.40;7.60;;;;;;;7.80;nan;100657.78;4992697;28;20022;-75
2021/11/14 06:27:41;;;;;;;10.75;7.53;;;;;;;7.74;nan;100663.56;4992414;28;20096;-75
2021/11/14 06:30:11;;;;;;;8.75;6.95;;;;;;;7.79;nan;100664.00;4992236;28;20030;-75
2021/11/14 06:32:37;;;;;;;9.65;7.43;;;;;;;7.78;nan;100674.66;4994099;28;20610;-75
2021/11/14 06:35:03;;;;;;;10.73;7.30;;;;;;;7.74;nan;100673.25;5003744;28;20026;-75
2021/11/14 06:37:28;;;;;;;10.77;7.60;;;;;;;7.81;nan;100674.41;4994770;28;20026;-75
2021/11/14 06:39:54;;;;;;;10.23;7.22;;;;;;;7.91;nan;100683.19;4986999;28;20036;-75
2021/11/14 06:42:20;;;;;;;9.32;7.70;;;;;;;7.91;nan;100688.44;4990308;28;20033;-75
2021/11/14 06:44:45;;;;;;;8.50;6.88;;;;;;;7.91;nan;100690.25;4990285;28;20038;-75
2021/11/14 06:47:13;;;;;;;8.38;6.55;;;;;;;7.92;nan;100695.41;4990886;28;20081;-75
2021/11/14 06:49:38;;;;;;;8.43;6.82;;;;;;;7.93;nan;100697.06;4991405;28;20042;-75
2021/11/14 06:52:05;;;;;;;10.38;7.00;;;;;;;7.93;nan;100698.84;4990314;28;20041;-75
2021/11/14 06:54:30;;;;;;;9.85;7.72;;;;;;;7.93;nan;100699.69;4993613;28;20030;-75
2021/11/14 06:56:56;;;;;;;11.95;8.52;;;;;;;8.01;nan;100707.78;4990235;28;20026;-75
2021/11/14 06:59:22;;;;;;;12.73;8.73;;;;;;;8.06;nan;100716.13;4996070;28;20022;-75
2021/11/14 07:01:47;;;;;;;10.07;7.72;;;;;;;8.01;nan;100713.06;4990398;28;20022;-75
2021/11/14 07:04:13;;;;;;;10.73;7.40;;;;;;;8.05;nan;100721.50;4990810;28;20081;-75
2021/11/14 07:06:38;;;;;;;9.77;7.82;;;;;;;8.13;nan;100719.06;4990105;28;20026;-75
2021/11/14 07:09:05;;;;;;;8.25;6.60;;;;;;;8.12;nan;100725.28;4990836;28;20018;-75
2021/11/14 07:11:30;;;;;;;9.73;7.18;;;;;;;8.15;nan;100727.69;4994065;28;20232;-75
2021/11/14 07:13:55;;;;;;;9.65;7.43;;;;;;;8.14;nan;100723.38;4990554;28;20029;-75
2021/11/14 07:16:21;;;;;;;9.15;6.88;;;;;;;8.18;nan;100732.69;4990505;28;20030;-75
2021/11/14 07:18:46;;;;;;;8.02;6.32;;;;;;;8.19;nan;100731.69;4990370;28;20541;-75
2021/11/14 07:21:12;;;;;;;7.95;5.88;;;;;;;8.17;nan;100738.06;4990513;28;20033;-75
2021/11/14 07:23:37;;;;;;;6.95;5.38;;;;;;;8.21;nan;100729.78;4989928;28;20029;-75
2021/11/14 07:26:02;;;;;;;8.07;5.97;;;;;;;8.26;nan;100738.09;4989583;28;20034;-75
2021/11/14 07:28:28;;;;;;;9.27;6.82;;;;;;;8.29;nan;100737.00;4990350;28;20026;-75
2021/11/14 07:30:53;;;;;;;7.93;5.95;;;;;;;8.26;nan;100737.28;4990324;28;20023;-75
2021/11/14 07:33:18;;;;;;;6.07;5.15;;;;;;;8.29;nan;100735.22;4990287;28;20048;-75
2021/11/14 07:35:44;;;;;;;6.38;4.70;;;;;;;8.36;nan;100743.41;4997142;28;20069;-75
2021/11/14 07:38:09;;;;;;;5.72;4.80;;;;;;;8.35;nan;100744.41;4990957;28;20041;-75
2021/11/14 07:40:35;;;;;;;10.00;7.47;;;;;;;8.39;nan;100750.22;4989594;28;20054;-76
2021/11/14 07:43:01;;;;;;;9.05;6.80;;;;;;;8.37;nan;100749.56;4990299;28;20030;-75
2021/11/14 07:45:33;;;;;;;9.80;6.70;;;;;;;8.42;nan;100752.66;4990892;28;20027;-74
2021/11/14 07:47:58;;;;;;;9.32;7.50;;;;;;;8.43;nan;100756.94;4990152;28;20034;-75
2021/11/14 07:50:27;;;;;;;9.35;7.70;;;;;;;8.38;nan;100753.84;4992422;28;20073;-75
2021/11/14 07:52:53;;;;;;;9.68;7.25;;;;;;;8.44;nan;100756.81;4990343;28;20026;-75
2021/11/14 07:55:19;;;;;;;10.80;7.72;;;;;;;8.51;nan;100757.13;4989832;28;20519;-75
2021/11/14 07:57:44;;;;;;;8.63;6.63;;;;;;;8.59;nan;100761.72;4990142;28;20078;-75
2021/11/14 08:00:15;;;;;;;7.00;5.82;;;;;;;8.62;nan;100756.19;4989639;28;20029;-75
2021/11/14 08:02:41;;;;;;;8.73;6.07;;;;;;;8.71;nan;100758.03;4992149;28;20022;-75
2021/11/14 08:05:07;;;;;;;8.65;6.72;;;;;;;8.77;nan;100757.50;4990209;28;20475;-75
2021/11/14 08:07:33;;;;;;;5.95;5.18;;;;;;;8.81;nan;100761.50;4992815;28;20061;-75
2021/11/14 08:09:58;;;;;;;6.65;4.90;;;;;;;8.89;nan;100756.41;4989879;28;20450;-75
2021/11/14 08:12:23;;;;;;;9.98;6.82;;;;;;;8.91;nan;100766.81;4989563;28;20062;-75
2021/11/14 08:14:49;;;;;;;8.73;6.95;;;;;;;8.93;nan;100756.97;4989888;28;20084;-75
2021/11/14 08:17:15;;;;;;;10.10;7.50;;;;;;;8.92;nan;100758.78;4990296;28;20030;-75
2021/11/14 08:19:40;;;;;;;9.27;6.93;;;;;;;8.98;nan;100767.13;4990267;28;20026;-75
2021/11/14 08:22:05;;;;;;;11.52;8.93;;;;;;;9.00;nan;100763.38;4995256;28;20569;-75
2021/11/14 08:24:31;;;;;;;13.13;9.27;;;;;;;8.99;nan;100771.44;4989316;28;20030;-75
2021/11/14 08:26:56;;;;;;;12.20;9.10;;;;;;;8.98;nan;100767.94;4988593;28;20034;-75
2021/11/14 08:29:22;;;;;;;12.80;9.52;;;;;;;8.96;nan;100772.50;4989786;28;20113;-75
2021/11/14 08:31:47;;;;;;;12.05;8.85;;;;;;;9.00;nan;100770.44;4989148;28;20391;-75
2021/11/14 08:34:13;;;;;;;11.40;8.38;;;;;;;9.01;nan;100767.69;4992797;28;20080;-75
2021/11/14 08:36:38;;;;;;;12.27;9.13;;;;;;;9.01;nan;100772.97;4990459;28;20034;-75
2021/11/14 08:39:04;;;;;;;12.18;8.15;;;;;;;9.11;nan;100780.91;4992788;28;20033;-75
2021/11/14 08:41:29;;;;;;;12.02;8.20;;;;;;;9.09;nan;100775.75;4993297;28;20403;-75
2021/11/14 08:43:55;;;;;;;12.40;8.77;;;;;;;9.12;nan;100775.47;4992704;28;20486;-75
2021/11/14 08:46:20;;;;;;;10.90;7.78;;;;;;;9.16;nan;100783.13;4991465;28;20030;-75
2021/11/14 08:48:45;;;;;;;11.75;8.45;;;;;;;9.18;nan;100784.66;4992340;28;20032;-75
2021/11/14 08:51:11;;;;;;;11.13;8.40;;;;;;;9.23;nan;100781.63;4993401;28;20045;-75
2021/11/14 08:53:37;;;;;;;12.10;8.60;;;;;;;9.29;nan;100784.50;4992933;28;20058;-75
2021/11/14 08:56:03;;;;;;;11.35;7.95;;;;;;;9.31;nan;100789.66;4994448;28;20027;-75
2021/11/14 08:58:33;;;;;;;11.25;8.05;;;;;;;9.32;nan;100805.38;4993267;28;20030;-75
2021/11/14 09:00:59;;;;;;;10.98;7.95;;;;;;;9.44;nan;100798.16;4993119;28;20027;-75
2021/11/14 09:03:24;;;;;;;20.40;13.70;;;;;;;9.42;nan;100808.03;4992628;28;20053;-75
2021/11/14 09:05:50;;;;;;;29.42;17.40;;;;;;;9.39;nan;100805.66;4991579;28;20097;-75
2021/11/14 09:08:15;;;;;;;16.35;11.00;;;;;;;9.42;nan;100805.38;4993130;28;20019;-75
2021/11/14 09:10:44;;;;;;;12.32;9.07;;;;;;;9.36;nan;100809.38;4992435;28;20181;-75
2021/11/14 09:13:09;;;;;;;14.32;10.52;;;;;;;9.46;nan;100813.84;4990994;28;20032;-75
2021/11/14 09:15:35;;;;;;;14.07;9.10;;;;;;;9.39;nan;100812.72;4993302;28;20030;-75
2021/11/14 09:18:01;;;;;;;11.43;8.88;;;;;;;9.48;nan;100823.28;4991334;28;20395;-75
2021/11/14 09:20:28;;;;;;;12.15;9.07;;;;;;;9.45;nan;100818.28;4995801;28;20072;-75
2021/11/14 09:22:54;;;;;;;13.57;9.82;;;;;;;9.44;nan;100821.06;4992241;28;20602;-75
2021/11/14 09:25:22;;;;;;;11.63;8.90;;;;;;;9.52;nan;100829.16;4993186;28;20575;-75
2021/11/14 09:27:49;;;;;;;11.27;8.52;;;;;;;9.44;nan;100823.69;4990614;28;20475;-75
2021/11/14 09:30:15;;;;;;;20.13;12.80;;;;;;;9.49;nan;100830.25;4991337;28;20260;-75
2021/11/14 09:32:41;;;;;;;13.68;10.13;;;;;;;9.49;nan;100826.78;4992871;28;20057;-75
2021/11/14 09:35:07;;;;;;;12.45;9.48;;;;;;;9.55;nan;100828.88;4992207;28;20034;-75
2021/11/14 09:37:32;;;;;;;10.75;7.20;;;;;;;9.46;nan;100829.69;4992891;28;20048;-75
2021/11/14 09:39:58;;;;;;;12.30;8.25;;;;;;;9.41;nan;100830.09;4990578;28;20535;-75
2021/11/14 09:42:25;;;;;;;10.73;7.75;;;;;;;9.31;nan;100835.34;4990183;28;20055;-75
2021/11/14 09:44:51;;;;;;;10.75;7.93;;;;;;;9.25;nan;100832.44;4998261;28;20418;-75
2021/11/14 09:47:16;;;;;;;11.48;7.68;;;;;;;9.32;nan;100844.13;4988274;28;20038;-75
2021/11/14 09:49:41;;;;;;;11.60;9.00;;;;;;;9.33;nan;100843.16;4996336;28;20038;-75
2021/11/14 09:52:07;;;;;;;10.88;7.70;;;;;;;9.46;nan;100849.00;4991142;28;20459;-75
2021/11/14 09:54:33;;;;;;;11.15;8.05;;;;;;;9.51;nan;100848.56;4998251;28;20044;-75
2021/11/14 09:57:00;;;;;;;15.18;10.60;;;;;;;9.52;nan;100848.44;4990608;28;20042;-75
2021/11/14 09:59:26;;;;;;;15.60;11.63;;;;;;;9.56;nan;100860.41;4989621;28;20038;-77
2021/11/14 10:01:53;;;;;;;10.88;7.88;;;;;;;9.56;nan;100862.22;4993984;28;20058;-75
2021/11/14 10:04:22;;;;;;;11.02;7.68;;;;;;;9.56;nan;100856.94;4989761;28;20026;-76
2021/11/14 10:07:08;;;;;;;10.07;7.90;;;;;;;9.42;nan;100850.25;4994619;28;20073;-76
2021/11/14 10:09:47;;;;;;;11.98;8.05;;;;;;;9.66;nan;100856.97;4990958;28;20035;-75
2021/11/14 10:12:23;;;;;;;10.43;7.90;;;;;;;9.62;nan;100856.38;4990654;28;20022;-75
2021/11/14 10:15:09;;;;;;;11.65;8.40;;;;;;;9.63;nan;100858.06;4987029;28;20034;-75
2021/11/14 10:17:35;;;;;;;12.63;9.13;;;;;;;9.76;nan;100863.91;4990270;28;20041;-75
2021/11/14 10:20:08;;;;;;;12.23;9.10;;;;;;;9.76;nan;100855.16;4989544;28;20398;-75
2021/11/14 10:22:43;;;;;;;12.40;8.02;;;;;;;9.74;nan;100865.84;4990568;28;20133;-75
2021/11/14 10:25:10;;;;;;;14.13;9.85;;;;;;;9.75;nan;100862.25;4990792;28;20515;-75
2021/11/14 10:27:36;;;;;;;12.20;8.40;;;;;;;9.81;nan;100858.19;4990416;28;20495;-76
2021/11/14 10:30:02;;;;;;;12.18;8.93;;;;;;;9.89;nan;100862.78;4991563;28;20032;-76
2021/11/14 10:32:28;;;;;;;10.27;8.00;;;;;;;9.76;nan;100869.19;4989083;28;20037;-75
2021/11/14 10:34:59;;;;;;;12.63;8.38;;;;;;;9.68;nan;100857.66;4991858;28;20125;-75
2021/11/14 10:37:25;;;;;;;11.68;8.63;;;;;;;9.52;nan;100858.19;4987798;28;20373;-75
2021/11/14 10:39:56;;;;;;;10.80;8.15;;;;;;;9.59;nan;100861.13;4990351;28;20062;-75
2021/11/14 10:42:25;;;;;;;11.70;8.20;;;;;;;9.73;nan;100863.34;4989576;28;20035;-75
2021/11/14 10:44:53;;;;;;;12.60;8.27;;;;;;;9.60;nan;100866.25;4986049;28;20537;-75
2021/11/14 10:47:23;;;;;;;12.70;8.13;;;;;;;9.82;nan;100862.53;4989576;28;20034;-75
2021/11/14 10:49:59;;;;;;;12.90;9.02;;;;;;;9.60;nan;100870.69;4981932;28;20033;-75
2021/11/14 10:52:27;;;;;;;13.80;9.25;;;;;;;9.69;nan;100868.06;4987221;28;20049;-76
2021/11/14 10:55:15;;;;;;;14.27;9.48;;;;;;;9.84;nan;100870.28;4988035;28;20653;-75
2021/11/14 10:57:41;;;;;;;14.32;9.35;;;;;;;9.63;nan;100857.22;4988625;28;20038;-75
2021/11/14 11:00:09;;;;;;;14.32;9.18;;;;;;;9.59;nan;100861.94;4993767;28;20092;-75
2021/11/14 11:02:39;;;;;;;14.07;9.18;;;;;;;9.77;nan;100862.09;4989286;28;20061;-75
2021/11/14 11:05:11;;;;;;;15.43;10.07;;;;;;;9.90;nan;100865.31;4988552;28;20038;-75
2021/11/14 11:07:36;;;;;;;13.15;8.95;;;;;;;9.87;nan;100862.13;4989369;28;20039;-74
2021/11/14 11:10:03;;;;;;;14.20;9.68;;;;;;;9.78;nan;100861.13;4989394;28;20077;-75
2021/11/14 11:12:29;;;;;;;13.20;9.27;;;;;;;9.54;nan;100858.88;4990281;28;20031;-74
2021/11/14 11:14:58;;;;;;;13.77;9.05;;;;;;;9.69;nan;100862.78;4989153;28;20198;-75
2021/11/14 11:17:25;;;;;;;12.98;9.38;;;;;;;9.57;nan;100863.88;4990088;28;20038;-74
2021/11/14 11:19:50;;;;;;;12.55;9.00;;;;;;;9.56;nan;100852.50;4988578;28;20034;-75
2021/11/14 11:22:16;;;;;;;13.38;8.70;;;;;;;9.49;nan;100854.00;4988670;28;20039;-74
2021/11/14 11:24:53;;;;;;;13.43;9.32;;;;;;;9.63;nan;100859.84;4988768;28;20523;-75
2021/11/14 11:27:19;;;;;;;12.85;8.73;;;;;;;9.52;nan;100847.63;4989722;28;20487;-75
2021/11/14 11:29:45;;;;;;;13.82;9.32;;;;;;;9.48;nan;100851.50;4989771;28;20551;-74
2021/11/14 11:32:13;;;;;;;14.00;9.48;;;;;;;9.87;nan;100854.19;4986942;28;20031;-74
2021/11/14 11:34:41;;;;;;;15.38;10.25;;;;;;;9.89;nan;100849.56;4987992;28;20053;-74
2021/11/14 11:37:07;;;;;;;14.25;9.27;;;;;;;10.01;nan;100861.69;4993173;28;20364;-74
2021/11/14 11:39:32;;;;;;;13.82;9.13;;;;;;;9.70;nan;100853.91;4989704;28;20038;-75
2021/11/14 11:42:00;;;;;;;13.23;8.60;;;;;;;9.81;nan;100849.44;4989833;28;20055;-74
2021/11/14 11:44:26;;;;;;;13.43;9.32;;;;;;;9.74;nan;100849.16;4987729;28;20046;-74